Time;durP1;ratioP1;P1;durP2;ratioP2;P2;SDS_P1;SDS_P2;PMS_P1;PMS_P2;Temp;Humidity;BMP_temperature;BMP_pressure;BME280_temperature;BME280_humidity;BME280_pressure;Samples;Min_cycle;Max_cycle;Signal;HPM_P1;HPM_P2
2022/09/24 00:00:52;;;;;;;5.10;4.70;;;14.50;99.90;;;;;;5053211;28;20446;-68
2022/09/24 00:03:19;;;;;;;5.73;5.10;;;14.40;99.90;;;;;;5052632;28;20548;-68
2022/09/24 00:05:46;;;;;;;5.97;5.30;;;14.40;99.90;;;;;;5053451;28;20205;-68
2022/09/24 00:08:13;;;;;;;5.40;4.70;;;14.40;99.90;;;;;;5053096;28;20456;-68
2022/09/24 00:10:40;;;;;;;5.77;5.30;;;14.30;99.90;;;;;;5052277;28;20404;-68
2022/09/24 00:13:10;;;;;;;4.77;4.30;;;14.40;99.90;;;;;;5052327;28;20429;-68
2022/09/24 00:15:38;;;;;;;5.00;4.20;;;14.50;99.90;;;;;;5052107;28;20905;-67
2022/09/24 00:18:04;;;;;;;5.10;4.60;;;14.40;99.90;;;;;;5053228;28;20425;-68
2022/09/24 00:20:31;;;;;;;5.07;3.90;;;14.50;99.90;;;;;;5052222;28;20451;-68
2022/09/24 00:22:58;;;;;;;5.67;4.27;;;14.50;99.90;;;;;;5053143;28;20820;-68
2022/09/24 00:28:08;;;;;;;5.00;4.63;;;14.50;99.90;;;;;;5053198;28;20430;-68
2022/09/24 00:30:36;;;;;;;5.63;5.13;;;14.60;99.90;;;;;;5052560;28;20421;-66
2022/09/24 00:33:01;;;;;;;6.03;3.93;;;14.60;99.90;;;;;;5053139;28;20175;-68
2022/09/24 00:35:27;;;;;;;5.80;4.47;;;14.50;99.90;;;;;;5053080;28;20411;-68
2022/09/24 00:37:52;;;;;;;4.50;4.10;;;14.50;99.90;;;;;;5066776;28;20177;-67
2022/09/24 00:40:19;;;;;;;4.90;4.50;;;14.50;99.90;;;;;;5073286;28;20182;-68
2022/09/24 00:42:44;;;;;;;4.70;4.30;;;14.50;99.90;;;;;;5072837;28;20199;-68
2022/09/24 00:45:10;;;;;;;5.00;4.57;;;14.50;99.90;;;;;;5058010;28;20427;-68
2022/09/24 00:47:40;;;;;;;4.77;4.37;;;14.40;99.90;;;;;;5053072;28;20164;-68
2022/09/24 00:50:22;;;;;;;5.60;5.20;;;14.40;99.90;;;;;;5052561;28;20618;-68
2022/09/24 00:53:01;;;;;;;4.77;4.27;;;14.30;99.90;;;;;;5052677;28;20397;-68
2022/09/24 00:55:27;;;;;;;6.00;4.07;;;14.40;99.90;;;;;;5052922;28;20396;-68
2022/09/24 00:57:56;;;;;;;5.37;4.87;;;14.30;99.90;;;;;;5051501;28;20402;-67
2022/09/24 01:00:22;;;;;;;5.10;3.93;;;14.20;99.90;;;;;;5052628;28;20417;-69
2022/09/24 01:02:53;;;;;;;7.33;4.87;;;14.20;99.90;;;;;;5052623;28;20542;-68
2022/09/24 01:05:19;;;;;;;5.13;4.73;;;14.10;99.90;;;;;;5050465;28;20941;-69
2022/09/24 01:07:47;;;;;;;4.77;4.37;;;14.10;99.90;;;;;;5052788;28;20439;-69
2022/09/24 01:10:46;;;;;;;8.27;5.07;;;14.10;99.90;;;;;;5060144;28;20196;-69
2022/09/24 01:13:13;;;;;;;5.60;5.10;;;14.00;99.90;;;;;;5053085;28;20411;-69
2022/09/24 01:15:47;;;;;;;8.00;5.13;;;14.00;99.90;;;;;;5052503;28;20395;-69
2022/09/24 01:18:34;;;;;;;5.53;5.10;;;13.90;99.90;;;;;;5053329;28;20968;-69
2022/09/24 01:21:08;;;;;;;5.87;5.37;;;13.90;99.90;;;;;;5052244;28;20426;-69
2022/09/24 01:23:58;;;;;;;6.80;6.20;;;13.80;99.90;;;;;;5032446;28;20438;-68
2022/09/24 01:26:31;;;;;;;5.50;5.00;;;13.80;99.90;;;;;;5035057;28;20379;-69
2022/09/24 01:29:24;;;;;;;6.17;5.57;;;13.80;99.90;;;;;;5035998;28;20884;-69
2022/09/24 01:32:05;;;;;;;6.87;5.60;;;13.90;99.90;;;;;;5036326;28;20384;-68
2022/09/24 01:34:43;;;;;;;8.57;6.93;;;13.90;99.90;;;;;;5043568;28;20427;-69
2022/09/24 01:37:13;;;;;;;7.83;7.13;;;13.80;99.90;;;;;;5055862;28;20905;-69
2022/09/24 01:39:40;;;;;;;6.97;6.27;;;13.70;99.90;;;;;;5055429;28;20514;-69
2022/09/24 01:42:08;;;;;;;6.83;6.20;;;13.70;99.90;;;;;;5054977;28;20427;-69
2022/09/24 01:44:34;;;;;;;7.07;6.47;;;13.70;99.90;;;;;;5055672;28;20894;-68
2022/09/24 01:47:00;;;;;;;7.43;6.83;;;13.70;99.90;;;;;;5055647;28;20444;-69
2022/09/24 01:49:25;;;;;;;8.27;7.53;;;13.60;99.90;;;;;;5084137;22;20546;-69
2022/09/24 01:51:58;;;;;;;7.37;6.67;;;13.60;99.90;;;;;;5059405;28;20171;-68
2022/09/24 01:54:34;;;;;;;9.30;8.50;;;13.50;99.90;;;;;;5055587;28;20159;-68
2022/09/24 01:57:02;;;;;;;8.43;7.47;;;13.50;99.90;;;;;;5071645;28;20394;-69
2022/09/24 01:59:35;;;;;;;9.03;7.87;;;13.40;99.90;;;;;;5073687;28;20494;-68
2022/09/24 02:02:17;;;;;;;7.47;6.83;;;13.40;99.90;;;;;;5075457;28;20384;-69
2022/09/24 02:04:52;;;;;;;8.87;8.07;;;13.30;99.90;;;;;;5074596;28;20424;-68
2022/09/24 02:07:59;;;;;;;8.63;7.83;;;13.30;99.90;;;;;;5074376;28;20428;-68
2022/09/24 02:10:29;;;;;;;8.93;7.97;;;13.20;99.90;;;;;;4995482;28;20440;-67
2022/09/24 02:13:00;;;;;;;8.77;8.00;;;13.20;99.90;;;;;;5044096;28;20421;-68
2022/09/24 02:15:36;;;;;;;10.00;9.07;;;13.00;99.90;;;;;;5054833;28;20434;-68
2022/09/24 02:18:15;;;;;;;10.53;9.53;;;13.00;99.90;;;;;;5054743;28;20415;-68
2022/09/24 02:20:43;;;;;;;8.20;7.40;;;12.90;99.90;;;;;;5052841;28;20487;-69
2022/09/24 02:23:10;;;;;;;9.13;8.27;;;12.90;99.90;;;;;;5054808;28;20475;-68
2022/09/24 02:25:52;;;;;;;9.90;7.90;;;13.00;99.90;;;;;;5054630;28;20431;-68
2022/09/24 02:28:18;;;;;;;7.90;7.20;;;13.10;99.90;;;;;;5054523;28;20391;-68
2022/09/24 02:30:51;;;;;;;8.97;8.17;;;13.10;99.90;;;;;;5054671;28;20501;-68
2022/09/24 02:36:03;;;;;;;8.20;6.73;;;13.30;99.90;;;;;;5059485;28;20415;-68
2022/09/24 02:38:29;;;;;;;8.33;7.57;;;13.40;99.90;;;;;;5072285;28;20408;-69
2022/09/24 02:40:55;;;;;;;7.57;6.63;;;13.40;99.90;;;;;;5074339;28;20162;-68
2022/09/24 02:43:20;;;;;;;9.40;7.53;;;13.40;99.90;;;;;;5072738;28;20194;-69
2022/09/24 02:45:46;;;;;;;7.90;7.10;;;13.50;99.90;;;;;;5074151;28;20412;-68
2022/09/24 02:48:11;;;;;;;8.87;7.80;;;13.50;99.90;;;;;;5074193;28;20197;-69
2022/09/24 02:50:37;;;;;;;7.97;7.27;;;13.50;99.90;;;;;;5074186;28;20556;-68
2022/09/24 02:53:03;;;;;;;11.20;8.20;;;13.50;99.90;;;;;;5074056;28;20663;-68
2022/09/24 02:55:28;;;;;;;8.40;7.60;;;13.60;99.90;;;;;;5074329;28;20166;-68
2022/09/24 02:57:54;;;;;;;8.47;7.53;;;13.60;99.90;;;;;;5074226;28;20230;-68
2022/09/24 03:00:19;;;;;;;8.47;7.53;;;13.70;99.90;;;;;;5072533;28;20201;-68
2022/09/24 03:02:46;;;;;;;9.43;8.27;;;13.60;99.90;;;;;;5073871;28;20259;-68
2022/09/24 03:05:16;;;;;;;7.47;6.77;;;13.60;99.90;;;;;;5073801;28;20200;-68
2022/09/24 03:07:43;;;;;;;7.00;6.30;;;13.70;99.90;;;;;;5074249;28;20398;-68
2022/09/24 03:10:09;;;;;;;7.40;6.80;;;13.70;99.90;;;;;;5073951;28;20490;-68
2022/09/24 03:12:34;;;;;;;7.83;6.93;;;13.70;99.90;;;;;;5073738;28;20407;-68
2022/09/24 03:15:00;;;;;;;7.67;7.07;;;13.70;99.90;;;;;;5073304;28;20400;-68
2022/09/24 03:17:27;;;;;;;7.33;6.70;;;13.70;99.90;;;;;;5073869;28;20168;-68
2022/09/24 03:19:52;;;;;;;7.03;6.33;;;13.80;99.90;;;;;;5072314;28;20632;-68
2022/09/24 03:22:18;;;;;;;7.23;6.57;;;13.80;99.90;;;;;;5074081;28;20435;-68
2022/09/24 03:24:44;;;;;;;8.57;6.50;;;13.70;99.90;;;;;;5073463;28;20230;-68
2022/09/24 03:27:10;;;;;;;7.17;6.47;;;13.80;99.90;;;;;;5073805;28;20176;-68
2022/09/24 03:32:19;;;;;;;6.70;6.10;;;13.90;99.90;;;;;;5073730;28;20674;-68
2022/09/24 03:34:44;;;;;;;7.83;7.17;;;14.00;99.90;;;;;;5072922;28;20464;-68
2022/09/24 03:37:10;;;;;;;7.40;6.70;;;13.90;99.90;;;;;;5072030;28;20187;-68
2022/09/24 03:39:35;;;;;;;7.73;6.47;;;13.90;99.90;;;;;;5073205;28;20192;-69
2022/09/24 03:42:01;;;;;;;7.70;6.70;;;13.90;99.90;;;;;;5072835;28;20175;-69
2022/09/24 03:44:27;;;;;;;7.13;6.43;;;13.90;99.90;;;;;;5070847;28;21191;-68
2022/09/24 03:46:53;;;;;;;6.90;6.30;;;14.00;99.90;;;;;;5073326;28;20222;-68
2022/09/24 03:49:18;;;;;;;9.90;7.20;;;13.90;99.90;;;;;;5071843;28;20813;-68
2022/09/24 03:51:44;;;;;;;7.10;6.50;;;13.90;99.90;;;;;;5071528;28;20176;-68
2022/09/24 03:54:10;;;;;;;7.53;6.83;;;14.00;99.90;;;;;;5072809;28;20169;-68
2022/09/24 03:56:35;;;;;;;7.10;6.50;;;14.00;99.90;;;;;;5072981;28;20176;-68
2022/09/24 03:59:01;;;;;;;6.80;6.20;;;13.90;99.90;;;;;;5071509;28;20472;-68
2022/09/24 04:01:27;;;;;;;7.47;6.80;;;13.90;99.90;;;;;;5072736;28;20250;-69
2022/09/24 04:03:53;;;;;;;6.87;6.17;;;14.00;99.90;;;;;;5072633;28;20339;-68
2022/09/24 04:06:19;;;;;;;7.07;6.37;;;14.00;99.90;;;;;;5071701;28;20443;-68
2022/09/24 04:08:44;;;;;;;6.90;5.30;;;14.10;99.90;;;;;;5072316;28;20164;-69
2022/09/24 04:11:10;;;;;;;7.00;6.30;;;14.10;99.90;;;;;;5072591;28;20247;-68
2022/09/24 04:13:35;;;;;;;7.47;6.87;;;14.00;99.90;;;;;;5072573;28;20223;-68
2022/09/24 04:16:02;;;;;;;7.67;6.20;;;14.10;99.90;;;;;;5072548;28;20177;-68
2022/09/24 04:18:28;;;;;;;8.03;6.37;;;14.20;99.90;;;;;;5072046;28;20259;-69
2022/09/24 04:21:00;;;;;;;6.20;5.60;;;14.30;99.90;;;;;;5071284;28;20546;-68
2022/09/24 04:23:26;;;;;;;6.57;5.93;;;14.30;99.90;;;;;;5072546;28;20301;-67
2022/09/24 04:25:53;;;;;;;7.23;6.53;;;14.30;99.90;;;;;;5071802;28;20844;-69
2022/09/24 04:28:19;;;;;;;6.47;5.87;;;14.40;99.90;;;;;;5072506;28;20750;-68
2022/09/24 04:30:44;;;;;;;7.10;6.40;;;14.40;99.90;;;;;;5071925;28;20553;-68
2022/09/24 04:33:10;;;;;;;7.43;6.80;;;14.40;99.90;;;;;;5072525;28;20254;-68
2022/09/24 04:35:36;;;;;;;7.57;6.87;;;14.50;99.90;;;;;;5072543;28;20174;-68
2022/09/24 04:38:03;;;;;;;8.60;7.80;;;14.50;99.90;;;;;;5072666;28;20186;-68
2022/09/24 04:40:29;;;;;;;9.17;7.33;;;14.50;99.90;;;;;;5071281;28;20279;-68
2022/09/24 04:42:54;;;;;;;8.80;8.00;;;14.40;99.90;;;;;;5070256;28;20488;-69
2022/09/24 04:45:20;;;;;;;9.43;6.67;;;14.30;99.90;;;;;;5072117;28;20650;-68
2022/09/24 04:47:52;;;;;;;7.53;6.93;;;14.30;99.90;;;;;;5072622;28;20273;-68
2022/09/24 04:50:19;;;;;;;7.30;6.70;;;14.30;99.90;;;;;;5050934;28;20295;-68
2022/09/24 04:52:44;;;;;;;11.60;10.40;;;14.30;99.90;;;;;;5052137;28;20430;-68
2022/09/24 04:55:10;;;;;;;8.63;7.30;;;14.30;99.90;;;;;;5052331;28;20436;-68
2022/09/24 04:57:35;;;;;;;7.67;7.00;;;14.40;99.90;;;;;;5052602;28;20183;-68
2022/09/24 05:00:06;;;;;;;8.00;7.30;;;14.30;99.90;;;;;;5063601;28;20269;-69
2022/09/24 05:02:32;;;;;;;8.10;7.40;;;14.20;99.90;;;;;;5076258;28;20199;-68
2022/09/24 05:04:57;;;;;;;9.23;7.43;;;14.30;99.90;;;;;;5074909;28;20422;-68
2022/09/24 05:07:23;;;;;;;8.20;7.40;;;14.30;99.90;;;;;;5075729;28;20768;-68
2022/09/24 05:09:49;;;;;;;7.00;6.37;;;14.20;99.90;;;;;;5075930;28;20194;-68
2022/09/24 05:12:14;;;;;;;7.90;7.13;;;14.20;99.90;;;;;;5075881;28;20217;-69
2022/09/24 05:14:40;;;;;;;7.80;7.07;;;14.20;99.90;;;;;;5075783;28;20166;-68
2022/09/24 05:17:05;;;;;;;9.20;8.30;;;14.20;99.90;;;;;;5075593;28;20172;-68
2022/09/24 05:19:31;;;;;;;8.50;7.63;;;14.10;99.90;;;;;;5074809;28;20206;-68
2022/09/24 05:21:56;;;;;;;8.73;7.93;;;14.10;99.90;;;;;;5075036;28;20170;-68
2022/09/24 05:24:22;;;;;;;8.77;7.87;;;14.10;99.90;;;;;;5075298;28;20264;-68
2022/09/24 05:29:31;;;;;;;8.20;7.50;;;14.20;99.90;;;;;;5075755;28;20300;-68
2022/09/24 05:31:59;;;;;;;7.63;7.03;;;14.10;99.90;;;;;;5075415;28;20428;-68
2022/09/24 05:34:25;;;;;;;8.17;7.47;;;14.10;99.90;;;;;;5075518;28;20176;-68
2022/09/24 05:36:50;;;;;;;8.23;7.43;;;14.20;99.90;;;;;;5074608;28;20410;-68
2022/09/24 05:39:16;;;;;;;9.20;8.40;;;14.10;99.90;;;;;;5075080;28;20244;-69
2022/09/24 05:41:42;;;;;;;8.13;7.33;;;14.20;99.90;;;;;;5075095;28;20259;-68
2022/09/24 05:44:09;;;;;;;9.43;7.43;;;14.00;99.90;;;;;;5075450;28;20681;-69
2022/09/24 05:46:35;;;;;;;7.80;7.00;;;14.10;99.90;;;;;;5075421;28;20552;-69
2022/09/24 05:49:00;;;;;;;7.43;6.80;;;14.10;99.90;;;;;;5074860;28;20444;-69
2022/09/24 05:51:26;;;;;;;8.33;7.50;;;14.10;99.90;;;;;;5074858;28;20404;-68
2022/09/24 05:53:51;;;;;;;8.57;7.87;;;14.10;99.90;;;;;;5075296;28;20179;-68
2022/09/24 05:56:17;;;;;;;8.93;8.07;;;14.20;99.90;;;;;;5075420;28;20538;-69
2022/09/24 05:58:43;;;;;;;12.10;8.30;;;14.20;99.90;;;;;;5074327;28;20239;-68
2022/09/24 06:01:08;;;;;;;8.77;7.30;;;14.20;99.90;;;;;;5075192;28;20403;-68
2022/09/24 06:03:34;;;;;;;8.10;7.30;;;14.30;99.90;;;;;;5075448;28;20654;-68
2022/09/24 06:06:01;;;;;;;8.67;7.80;;;14.40;99.90;;;;;;5075346;28;20169;-68
2022/09/24 06:08:28;;;;;;;8.57;7.87;;;14.50;99.90;;;;;;5075481;28;20603;-68
2022/09/24 06:10:58;;;;;;;8.67;7.80;;;14.40;99.90;;;;;;5073496;28;20450;-68
2022/09/24 06:13:24;;;;;;;9.30;8.33;;;14.50;99.90;;;;;;5074052;28;20487;-68
2022/09/24 06:15:49;;;;;;;8.00;7.27;;;14.60;99.90;;;;;;5069909;28;20454;-69
2022/09/24 06:18:15;;;;;;;14.70;10.40;;;14.50;99.90;;;;;;5075165;28;20183;-69
2022/09/24 06:20:41;;;;;;;9.53;8.73;;;14.50;99.90;;;;;;5074577;28;20276;-68
2022/09/24 06:23:06;;;;;;;8.80;8.00;;;14.60;99.90;;;;;;5074538;28;20193;-68
2022/09/24 06:25:32;;;;;;;9.43;7.60;;;14.60;99.90;;;;;;5074379;28;20189;-67
2022/09/24 06:28:00;;;;;;;9.90;8.47;;;14.70;99.90;;;;;;5074560;28;20631;-68
2022/09/24 06:30:33;;;;;;;9.67;8.73;;;14.80;99.90;;;;;;5074237;28;20220;-67
2022/09/24 06:33:07;;;;;;;7.97;7.30;;;14.80;99.90;;;;;;5074471;28;20403;-67
2022/09/24 06:35:37;;;;;;;8.60;7.40;;;14.80;99.90;;;;;;5074690;28;20835;-67
2022/09/24 06:38:04;;;;;;;8.77;8.07;;;14.90;99.90;;;;;;5074697;28;20549;-68
2022/09/24 06:40:29;;;;;;;9.30;8.40;;;15.10;99.90;;;;;;5074013;28;20801;-67
2022/09/24 06:42:55;;;;;;;9.80;9.00;;;15.30;99.90;;;;;;5074223;28;20409;-68
2022/09/24 06:45:21;;;;;;;10.07;9.17;;;15.30;99.90;;;;;;5074186;28;20413;-69
2022/09/24 06:47:58;;;;;;;10.03;9.23;;;15.50;99.90;;;;;;5074605;28;20402;-69
2022/09/24 06:50:26;;;;;;;11.37;10.37;;;15.50;99.90;;;;;;5073758;28;20570;-68
2022/09/24 06:52:52;;;;;;;9.27;8.40;;;15.60;99.90;;;;;;5073807;28;20440;-68
2022/09/24 06:55:18;;;;;;;11.10;10.00;;;15.60;99.90;;;;;;5074160;28;20404;-68
2022/09/24 06:57:44;;;;;;;11.00;9.97;;;15.70;99.90;;;;;;5074006;28;20208;-68
2022/09/24 07:00:11;;;;;;;10.50;9.60;;;15.80;99.90;;;;;;5073072;28;20944;-68
2022/09/24 07:02:37;;;;;;;11.90;10.80;;;15.90;99.90;;;;;;5073928;28;20398;-68
2022/09/24 07:05:03;;;;;;;10.63;9.53;;;15.90;99.90;;;;;;5073425;28;20916;-69
2022/09/24 07:07:29;;;;;;;11.47;10.47;;;15.90;99.90;;;;;;5073738;28;20467;-69
2022/09/24 07:09:56;;;;;;;10.13;9.10;;;15.90;99.90;;;;;;5073872;28;20886;-68
2022/09/24 07:12:22;;;;;;;9.37;8.40;;;15.90;99.90;;;;;;5074004;28;20494;-68
2022/09/24 07:14:48;;;;;;;9.30;8.40;;;15.90;99.90;;;;;;5073782;28;20669;-68
2022/09/24 07:17:14;;;;;;;9.80;8.50;;;16.00;99.90;;;;;;5073832;28;20838;-68
2022/09/24 07:19:40;;;;;;;11.30;9.20;;;16.10;99.90;;;;;;5072491;28;20527;-68
2022/09/24 07:22:06;;;;;;;9.13;8.30;;;16.20;99.90;;;;;;5073707;28;20248;-69
2022/09/24 07:24:32;;;;;;;10.30;9.30;;;16.20;99.90;;;;;;5073143;28;20543;-68
2022/09/24 07:26:57;;;;;;;10.77;9.77;;;16.30;99.90;;;;;;5073576;28;20244;-69
2022/09/24 07:29:23;;;;;;;10.97;8.70;;;16.30;99.90;;;;;;5073292;28;20666;-69
2022/09/24 07:31:49;;;;;;;9.97;8.97;;;16.30;99.90;;;;;;5073650;28;20635;-69
2022/09/24 07:34:14;;;;;;;11.20;8.40;;;16.50;99.90;;;;;;5073423;28;20264;-69
2022/09/24 07:36:41;;;;;;;8.90;7.93;;;16.60;99.90;;;;;;5073514;28;20176;-68
2022/09/24 07:39:06;;;;;;;9.57;8.77;;;16.70;99.90;;;;;;5073506;28;20185;-71
2022/09/24 07:41:32;;;;;;;8.93;8.13;;;16.80;99.90;;;;;;5072143;28;20420;-68
2022/09/24 07:43:58;;;;;;;8.67;7.70;;;16.80;99.90;;;;;;5073838;28;20205;-68
2022/09/24 07:46:25;;;;;;;9.60;8.67;;;17.00;99.90;;;;;;5072909;28;20408;-67
2022/09/24 07:51:27;;;;;;;9.57;8.30;;;17.10;99.90;;;;;;5026925;28;20473;-68
2022/09/24 07:53:54;;;;;;;9.83;8.87;;;17.20;99.90;;;;;;5032444;28;20414;-68
2022/09/24 07:56:21;;;;;;;9.93;8.80;;;17.20;99.90;;;;;;5027745;28;20415;-68
2022/09/24 07:58:52;;;;;;;10.80;9.37;;;17.20;99.90;;;;;;5013836;28;20400;-69
2022/09/24 08:01:19;;;;;;;11.43;10.33;;;17.30;99.90;;;;;;5009069;28;20508;-69
2022/09/24 08:03:45;;;;;;;10.30;9.10;;;17.30;99.90;;;;;;5013617;28;20497;-68
2022/09/24 08:06:11;;;;;;;11.27;9.13;;;17.20;99.90;;;;;;5013741;28;20411;-69
2022/09/24 08:08:38;;;;;;;9.00;8.10;;;17.40;99.90;;;;;;5013219;28;20739;-69
2022/09/24 08:11:09;;;;;;;9.33;8.53;;;17.40;99.90;;;;;;5013549;28;20484;-69
2022/09/24 08:13:35;;;;;;;8.70;7.97;;;17.30;99.90;;;;;;5013741;28;20387;-69
2022/09/24 08:16:02;;;;;;;12.63;10.73;;;17.60;99.90;;;;;;5012989;28;20418;-69
2022/09/24 08:18:30;;;;;;;14.27;11.60;;;17.30;99.90;;;;;;5012989;28;20411;-69
2022/09/24 08:20:56;;;;;;;11.40;9.97;;;16.90;99.90;;;;;;5013403;28;20430;-69
2022/09/24 08:23:22;;;;;;;12.67;11.37;;;17.10;99.90;;;;;;5013039;28;20525;-69
2022/09/24 08:25:48;;;;;;;14.93;11.10;;;17.10;99.90;;;;;;5012138;28;20977;-69
2022/09/24 08:28:15;;;;;;;11.37;10.33;;;16.80;99.90;;;;;;5013292;28;20241;-69
2022/09/24 08:30:42;;;;;;;12.80;11.10;;;16.80;99.90;;;;;;5012543;28;20180;-69
2022/09/24 08:33:09;;;;;;;11.43;10.37;;;16.90;99.90;;;;;;5013359;28;20446;-69
2022/09/24 08:35:35;;;;;;;11.57;10.30;;;16.70;99.90;;;;;;5014329;28;20403;-69
2022/09/24 08:38:02;;;;;;;12.80;11.60;;;16.50;99.90;;;;;;5017208;28;20917;-69
2022/09/24 08:40:31;;;;;;;15.57;14.10;;;16.40;99.90;;;;;;5017145;28;20481;-69
2022/09/24 08:43:13;;;;;;;19.07;15.87;;;16.70;99.90;;;;;;5015874;28;20453;-69
2022/09/24 08:48:41;;;;;;;34.33;23.60;;;17.90;99.90;;;;;;5016502;28;20422;-68
2022/09/24 08:51:12;;;;;;;16.90;14.53;;;18.20;99.90;;;;;;5016623;28;20447;-69
2022/09/24 08:53:49;;;;;;;12.33;11.13;;;18.20;99.90;;;;;;5017103;28;20395;-69
2022/09/24 08:56:24;;;;;;;11.03;9.93;;;18.10;99.90;;;;;;5017018;28;20421;-69
2022/09/24 08:59:18;;;;;;;9.33;8.53;;;18.70;99.90;;;;;;5017423;28;20386;-69
2022/09/24 09:02:19;;;;;;;13.93;11.50;;;18.60;99.90;;;;;;5015498;28;20430;-69
2022/09/24 09:05:17;;;;;;;12.70;10.00;;;18.90;99.90;;;;;;5017423;28;20418;-69
2022/09/24 09:08:15;;;;;;;9.07;7.97;;;18.70;99.90;;;;;;5015799;28;20443;-69
2022/09/24 09:10:42;;;;;;;8.70;7.80;;;18.60;99.90;;;;;;5006433;28;20837;-69
2022/09/24 09:13:34;;;;;;;8.20;7.40;;;18.70;99.90;;;;;;5016573;28;20415;-69
2022/09/24 09:16:05;;;;;;;7.43;6.73;;;18.70;99.90;;;;;;5016298;28;20865;-69
2022/09/24 09:18:41;;;;;;;6.27;5.77;;;18.60;99.90;;;;;;5016579;28;20395;-69
2022/09/24 09:21:25;;;;;;;4.13;3.63;;;18.70;99.90;;;;;;5016395;28;20422;-69
2022/09/24 09:23:53;;;;;;;4.23;3.70;;;18.30;99.90;;;;;;5016902;28;20427;-69
2022/09/24 09:26:21;;;;;;;4.40;4.00;;;18.40;99.90;;;;;;5016738;28;20410;-69
2022/09/24 09:28:48;;;;;;;4.03;3.70;;;18.50;99.90;;;;;;5016604;28;20521;-69
2022/09/24 09:31:22;;;;;;;3.23;3.03;;;18.50;99.90;;;;;;5015970;28;20509;-69
2022/09/24 09:34:12;;;;;;;7.40;6.67;;;18.50;99.90;;;;;;5016178;28;20402;-69
2022/09/24 09:37:06;;;;;;;4.80;3.17;;;18.40;99.90;;;;;;5016739;28;20513;-69
2022/09/24 09:39:44;;;;;;;5.50;3.20;;;18.20;99.90;;;;;;5015928;28;20429;-69
2022/09/24 09:42:28;;;;;;;5.30;3.23;;;18.00;99.90;;;;;;5015937;28;20394;-69
2022/09/24 09:44:53;;;;;;;3.80;3.50;;;18.30;99.90;;;;;;5016118;28;20430;-69
2022/09/24 09:47:28;;;;;;;3.53;3.23;;;18.30;99.90;;;;;;5015367;28;21005;-69
2022/09/24 09:50:00;;;;;;;3.80;3.50;;;18.30;99.90;;;;;;5015871;28;20577;-69
2022/09/24 09:52:28;;;;;;;3.87;3.30;;;18.20;99.90;;;;;;5016306;28;20820;-69
2022/09/24 09:54:54;;;;;;;4.23;3.80;;;18.30;99.90;;;;;;5015721;28;20887;-69
2022/09/24 09:57:22;;;;;;;4.30;3.70;;;18.50;99.90;;;;;;5015621;28;20442;-69
2022/09/24 09:59:50;;;;;;;3.97;3.67;;;18.20;99.90;;;;;;5015397;28;20203;-68
2022/09/24 10:02:33;;;;;;;3.70;3.40;;;18.10;99.90;;;;;;5014567;28;20422;-69
2022/09/24 10:05:04;;;;;;;4.00;3.70;;;18.40;99.90;;;;;;5015556;28;20427;-69
2022/09/24 10:07:30;;;;;;;3.70;3.40;;;18.60;99.90;;;;;;5014347;28;20427;-69
2022/09/24 10:10:19;;;;;;;4.00;3.60;;;18.60;99.90;;;;;;5015617;28;20494;-69
2022/09/24 10:12:45;;;;;;;4.60;3.97;;;18.70;99.90;;;;;;5015786;28;20384;-69
2022/09/24 10:15:13;;;;;;;3.80;3.40;;;18.30;99.90;;;;;;5014119;28;20784;-69
2022/09/24 10:17:40;;;;;;;4.83;4.17;;;18.30;99.90;;;;;;5015405;28;20415;-69
2022/09/24 10:20:21;;;;;;;9.43;5.90;;;18.40;99.90;;;;;;5015135;28;20462;-69
2022/09/24 10:22:51;;;;;;;6.33;5.33;;;18.40;99.90;;;;;;5014799;28;20419;-69
2022/09/24 10:25:23;;;;;;;4.67;4.20;;;18.40;99.90;;;;;;5014328;28;20461;-67
2022/09/24 10:27:51;;;;;;;5.90;5.10;;;18.20;99.90;;;;;;5015000;28;20384;-69
2022/09/24 10:30:32;;;;;;;5.03;4.53;;;18.20;99.90;;;;;;5015077;28;20422;-69
2022/09/24 10:33:00;;;;;;;4.00;3.70;;;18.40;99.90;;;;;;5015033;28;20394;-69
2022/09/24 10:35:37;;;;;;;5.63;5.07;;;18.60;99.90;;;;;;5015208;28;20977;-69
2022/09/24 10:38:21;;;;;;;4.47;4.07;;;18.70;99.90;;;;;;5014990;28;20383;-69
2022/09/24 10:40:47;;;;;;;4.70;4.30;;;18.30;99.90;;;;;;5014519;28;20423;-69
2022/09/24 10:43:20;;;;;;;5.57;4.60;;;18.40;99.90;;;;;;5012201;28;20470;-69
2022/09/24 10:46:02;;;;;;;4.37;3.47;;;18.70;99.90;;;;;;5013216;28;20834;-69
2022/09/24 10:48:30;;;;;;;3.90;3.57;;;18.60;99.90;;;;;;5014989;28;20384;-69
2022/09/24 10:51:19;;;;;;;3.67;3.37;;;19.00;99.90;;;;;;5014559;28;20443;-69
2022/09/24 10:54:18;;;;;;;4.33;3.67;;;18.90;99.90;;;;;;5014966;28;20411;-69
2022/09/24 10:56:51;;;;;;;3.90;2.57;;;18.70;99.90;;;;;;5014230;28;20391;-69
2022/09/24 10:59:44;;;;;;;3.90;3.60;;;18.50;99.90;;;;;;5014224;28;20871;-69
2022/09/24 11:02:12;;;;;;;3.30;3.10;;;18.30;99.90;;;;;;5013142;28;21000;-69
2022/09/24 11:04:58;;;;;;;3.90;3.50;;;18.00;99.90;;;;;;5014417;28;20882;-69
2022/09/24 11:07:32;;;;;;;3.33;3.07;;;18.10;99.90;;;;;;5014838;28;20442;-69
2022/09/24 11:10:04;;;;;;;3.23;2.97;;;18.40;99.90;;;;;;5014599;28;20434;-69
2022/09/24 11:12:38;;;;;;;3.80;3.50;;;18.60;99.90;;;;;;5014591;28;20391;-69
2022/09/24 11:15:10;;;;;;;4.43;3.83;;;18.60;99.90;;;;;;5014715;28;20873;-69
2022/09/24 11:17:56;;;;;;;4.00;3.60;;;18.80;99.90;;;;;;5013074;28;20419;-69
2022/09/24 11:20:48;;;;;;;4.43;3.93;;;18.70;99.90;;;;;;5014457;28;20434;-69
2022/09/24 11:23:45;;;;;;;3.53;3.23;;;18.60;99.90;;;;;;5013276;28;20455;-68
2022/09/24 11:26:48;;;;;;;3.97;3.53;;;18.30;99.90;;;;;;5011929;28;20407;-69
2022/09/24 11:29:42;;;;;;;3.80;3.50;;;18.30;99.90;;;;;;5011141;28;20422;-69
2022/09/24 11:32:38;;;;;;;3.20;3.00;;;18.50;99.90;;;;;;4994082;28;20388;-68
2022/09/24 11:35:24;;;;;;;3.10;2.90;;;18.70;99.90;;;;;;5014194;28;20773;-69
2022/09/24 11:38:07;;;;;;;3.27;2.97;;;18.60;99.90;;;;;;5014241;28;20499;-69
2022/09/24 11:40:52;;;;;;;4.23;2.87;;;18.80;99.90;;;;;;5014450;28;20423;-69
2022/09/24 11:43:24;;;;;;;3.20;2.90;;;19.00;99.90;;;;;;5013896;28;20504;-69
2022/09/24 11:46:01;;;;;;;4.20;3.90;;;18.70;99.90;;;;;;5014021;28;20847;-69
2022/09/24 11:48:33;;;;;;;2.73;2.47;;;18.40;99.90;;;;;;5013315;28;20406;-69
2022/09/24 11:51:05;;;;;;;3.10;2.90;;;18.40;99.90;;;;;;5012438;28;20455;-68
2022/09/24 11:53:36;;;;;;;3.63;3.33;;;18.20;99.90;;;;;;5013797;28;20380;-69
2022/09/24 11:56:21;;;;;;;3.60;3.00;;;18.40;99.90;;;;;;5014084;28;20467;-69
2022/09/24 11:58:51;;;;;;;4.07;3.13;;;18.40;99.90;;;;;;5012732;28;20530;-69
2022/09/24 12:01:25;;;;;;;4.60;3.27;;;18.30;99.90;;;;;;5013423;28;20411;-69
2022/09/24 12:03:59;;;;;;;3.00;2.80;;;18.50;99.90;;;;;;5013399;28;20784;-69
2022/09/24 12:06:34;;;;;;;3.87;3.20;;;18.80;99.90;;;;;;5013572;28;20395;-69
2022/09/24 12:09:16;;;;;;;4.03;3.07;;;18.60;99.90;;;;;;5013465;28;20379;-69
2022/09/24 12:11:50;;;;;;;4.43;4.03;;;18.70;99.90;;;;;;5013078;28;20874;-68
2022/09/24 12:14:26;;;;;;;4.33;3.93;;;18.90;99.90;;;;;;5013371;28;20395;-69
2022/09/24 12:17:03;;;;;;;3.80;3.50;;;19.00;99.90;;;;;;5013235;28;20399;-69
2022/09/24 12:19:36;;;;;;;4.93;4.43;;;19.20;99.90;;;;;;5012497;28;20441;-69
2022/09/24 12:22:03;;;;;;;4.00;3.60;;;19.10;99.90;;;;;;5013357;28;20886;-69
2022/09/24 12:24:50;;;;;;;3.60;3.30;;;19.10;99.90;;;;;;5013255;28;20447;-68
2022/09/24 12:27:21;;;;;;;5.40;4.20;;;18.90;99.90;;;;;;5013378;28;20406;-69
2022/09/24 12:32:59;;;;;;;7.43;4.23;;;18.90;99.90;;;;;;5013263;28;20849;-68
2022/09/24 12:35:27;;;;;;;5.60;4.77;;;19.00;99.90;;;;;;5012987;28;20395;-68
2022/09/24 12:38:07;;;;;;;4.30;4.00;;;19.10;99.90;;;;;;5012199;28;20784;-68
2022/09/24 12:41:01;;;;;;;5.00;4.50;;;18.90;99.90;;;;;;5012589;28;20929;-68
2022/09/24 12:43:48;;;;;;;4.57;4.17;;;19.00;99.90;;;;;;5012764;28;21015;-68
2022/09/24 12:46:21;;;;;;;4.77;4.37;;;19.10;99.90;;;;;;5012834;28;20390;-68
2022/09/24 12:48:48;;;;;;;5.70;4.20;;;19.00;99.90;;;;;;5013271;28;20859;-69
2022/09/24 12:51:15;;;;;;;5.87;5.23;;;19.10;99.90;;;;;;5012737;28;20529;-68
2022/09/24 12:53:53;;;;;;;6.07;4.60;;;19.00;99.90;;;;;;5012602;28;20439;-68
2022/09/24 12:56:28;;;;;;;6.30;4.57;;;19.00;99.90;;;;;;5012992;28;20395;-68
2022/09/24 12:58:55;;;;;;;5.13;4.63;;;19.20;99.90;;;;;;5012936;28;20383;-68
2022/09/24 13:01:24;;;;;;;6.93;5.07;;;19.30;99.90;;;;;;5011720;28;20426;-68
2022/09/24 13:04:13;;;;;;;5.30;4.80;;;19.60;99.90;;;;;;5012382;28;20443;-68
2022/09/24 13:06:39;;;;;;;5.33;4.83;;;20.20;99.90;;;;;;5013113;28;20395;-68
2022/09/24 13:09:34;;;;;;;4.97;4.47;;;20.40;99.90;;;;;;5012653;28;20506;-68
2022/09/24 13:12:13;;;;;;;5.80;5.30;;;20.70;99.90;;;;;;5013175;28;20461;-68
2022/09/24 13:14:41;;;;;;;7.87;7.17;;;20.60;99.90;;;;;;5012889;28;20748;-68
2022/09/24 13:17:06;;;;;;;4.83;4.43;;;20.30;99.90;;;;;;5012139;28;20457;-68
2022/09/24 13:19:39;;;;;;;7.33;6.73;;;20.50;99.90;;;;;;5012780;28;20423;-68
2022/09/24 13:22:16;;;;;;;5.53;5.03;;;20.50;99.90;;;;;;5014555;28;20191;-69
2022/09/24 13:24:51;;;;;;;6.43;5.10;;;20.30;99.90;;;;;;5016373;28;21014;-69